Main page
METAR-TAF:

METAR-TAF

Airports :

Orange-Caritat Air Base

Orange, France

latitude: 44-08N, longitude: 004-50E, elevation: 60 m

Current weather observation

The report was made 19 minutes ago, at 07:00 UTC
Wind 2 kt from variable directions
Temperature 4°C
Humidity 81%
Pressure 1025 hPa
Visibility 10 km or more
no clouds below 1500 m and no cumulonimbus

METAR: LFMO 200700Z AUTO VRB02KT CAVOK 04/01 Q1025 NOSIG

Time: 08:19 (07:19 UTC)

Forecast

The report was made 5 hours and 19 minutes ago, at 02:00 UTC
Forecast valid from 20 at 03 UTC to 21 at 03 UTC
Wind 8 kt from the North/Northwest
Visibility 10 km or more
no clouds below 1500 m and no cumulonimbus
Probability 30% :
Temporary
from 20 at 06 UTC to 20 at 07 UTC
Visibility: 4000 m
mist
Probability 30% :
Temporary
from 20 at 23 UTC to 21 at 02 UTC
Visibility: 0800 m
patches of fog

TAF: LFMO 200200Z 2003/2103 34008KT CAVOK PROB30 TEMPO 2006/2007 4000 BR PROB30 TEMPO 2023/2102 0800 BCFG

Weather observations and forecasts of more than 4000 airports (METAR and TAF reports).

The available stations are represented by yellow and red dots on the map.

Hover mouse over dot to see the name of the station.

Then click to see weather observations and forecasts.

To change the map : click on the green buttons with a black cross to zoom in, on the green button with a dash to zoom out, or on the green arrows for adjacent maps.


METAR-TAF: